Time;durP1;ratioP1;P1;durP2;ratioP2;P2;SDS_P1;SDS_P2;PMS_P1;PMS_P2;Temp;Humidity;BMP_temperature;BMP_pressure;BME280_temperature;BME280_humidity;BME280_pressure;Samples;Min_cycle;Max_cycle;Signal;HPM_P1;HPM_P2
2021/01/16 00:01:21;;;;;;;73.90;33.47;;;-6.30;89.40;;;;;;5108606;28;20510;-67
2021/01/16 00:03:47;;;;;;;67.85;33.10;;;-6.30;89.50;;;;;;5108824;28;20034;-68
2021/01/16 00:06:14;;;;;;;83.05;36.35;;;-6.40;89.20;;;;;;5108335;28;20390;-68
2021/01/16 00:08:42;;;;;;;68.80;30.77;;;-6.40;89.40;;;;;;5108591;28;20034;-67
2021/01/16 00:11:08;;;;;;;65.20;28.98;;;-6.40;89.40;;;;;;5108490;28;20019;-67
2021/01/16 00:13:34;;;;;;;66.38;29.25;;;-6.50;89.20;;;;;;5108494;28;20030;-66
2021/01/16 00:16:01;;;;;;;57.88;26.58;;;-6.50;88.90;;;;;;5108462;28;20032;-66
2021/01/16 00:18:27;;;;;;;63.00;28.42;;;-6.50;88.60;;;;;;5108025;28;20030;-67
2021/01/16 00:20:55;;;;;;;75.90;34.25;;;-6.70;88.40;;;;;;5107181;28;20035;-66
2021/01/16 00:23:24;;;;;;;80.03;34.03;;;-6.70;88.90;;;;;;5090334;28;20084;-67
2021/01/16 00:25:51;;;;;;;60.10;24.30;;;-6.80;89.10;;;;;;5108472;28;20130;-66
2021/01/16 00:28:22;;;;;;;57.67;25.70;;;-6.90;89.20;;;;;;5107523;28;20035;-67
2021/01/16 00:30:48;;;;;;;56.00;23.98;;;-6.90;89.30;;;;;;5107823;28;20099;-67
2021/01/16 00:33:17;;;;;;;52.55;21.65;;;-7.00;89.40;;;;;;5107962;28;20114;-67
2021/01/16 00:35:43;;;;;;;62.20;25.55;;;-7.10;89.80;;;;;;5107466;28;20084;-67
2021/01/16 00:38:08;;;;;;;60.03;25.58;;;-7.10;89.60;;;;;;5107614;28;20491;-67
2021/01/16 00:40:34;;;;;;;50.78;21.48;;;-7.20;89.50;;;;;;5108165;28;20038;-67
2021/01/16 00:43:05;;;;;;;49.55;19.25;;;-7.20;89.10;;;;;;5108276;28;20623;-67
2021/01/16 00:45:31;;;;;;;49.70;19.08;;;-7.20;89.70;;;;;;5089543;28;20020;-68
2021/01/16 00:48:05;;;;;;;43.80;18.02;;;-7.20;89.90;;;;;;5107603;28;20043;-66
2021/01/16 00:50:31;;;;;;;42.80;18.40;;;-7.30;90.00;;;;;;5107343;28;20051;-66
2021/01/16 00:52:58;;;;;;;48.53;20.02;;;-7.30;90.00;;;;;;5089169;28;20067;-69
2021/01/16 00:55:25;;;;;;;39.13;18.27;;;-7.30;90.00;;;;;;5107782;28;20111;-68
2021/01/16 00:57:51;;;;;;;40.15;18.20;;;-7.30;90.00;;;;;;5107545;28;20419;-68
2021/01/16 01:00:18;;;;;;;41.38;18.92;;;-7.20;90.10;;;;;;5107855;28;20035;-66
2021/01/16 01:02:43;;;;;;;49.03;19.20;;;-7.30;90.10;;;;;;5107465;28;20207;-67
2021/01/16 01:05:14;;;;;;;60.30;24.48;;;-7.30;89.50;;;;;;5107670;28;20407;-68
2021/01/16 01:07:40;;;;;;;41.58;18.77;;;-7.40;89.50;;;;;;5107231;28;20032;-67
2021/01/16 01:10:07;;;;;;;41.95;18.85;;;-7.40;89.40;;;;;;5107575;28;20024;-67
2021/01/16 01:12:33;;;;;;;40.80;19.92;;;-7.50;90.00;;;;;;5089179;28;20369;-68
2021/01/16 01:14:58;;;;;;;39.13;17.15;;;-7.50;90.00;;;;;;5107496;28;20039;-68
2021/01/16 01:17:24;;;;;;;46.05;19.15;;;-7.60;90.10;;;;;;5107083;28;20117;-67
2021/01/16 01:19:49;;;;;;;37.70;16.77;;;-7.60;89.80;;;;;;5107409;28;20150;-68
2021/01/16 01:22:15;;;;;;;38.05;16.20;;;-7.70;89.20;;;;;;5106929;28;20077;-69
2021/01/16 01:24:41;;;;;;;48.10;19.10;;;-7.70;89.40;;;;;;5088798;28;20077;-68
2021/01/16 01:27:06;;;;;;;48.33;19.20;;;-7.80;89.30;;;;;;5106900;28;20227;-68
2021/01/16 01:29:33;;;;;;;45.75;19.13;;;-7.80;88.60;;;;;;5106825;28;20504;-68
2021/01/16 01:31:59;;;;;;;52.47;23.13;;;-7.90;89.00;;;;;;5106796;28;20070;-68
2021/01/16 01:34:25;;;;;;;40.97;17.65;;;-7.90;89.30;;;;;;5088635;28;20051;-67
2021/01/16 01:36:50;;;;;;;43.03;18.40;;;-7.80;89.60;;;;;;5088788;28;20427;-68
2021/01/16 01:39:16;;;;;;;54.72;22.35;;;-7.80;90.10;;;;;;5088178;28;20066;-66
2021/01/16 01:41:42;;;;;;;84.22;24.95;;;-7.80;90.20;;;;;;5106940;28;20020;-67
2021/01/16 01:44:09;;;;;;;48.88;18.05;;;-7.80;90.30;;;;;;5107316;28;20024;-67
2021/01/16 01:46:35;;;;;;;39.00;16.48;;;-7.70;90.20;;;;;;5106941;28;20483;-68
2021/01/16 01:49:02;;;;;;;32.33;15.32;;;-7.70;90.10;;;;;;5088648;28;20030;-67
2021/01/16 01:51:31;;;;;;;31.00;13.05;;;-7.80;90.30;;;;;;5105644;28;20042;-68
2021/01/16 01:53:59;;;;;;;34.35;14.93;;;-7.80;90.30;;;;;;5106904;28;20024;-67
2021/01/16 01:56:26;;;;;;;43.47;16.35;;;-7.80;90.20;;;;;;5107004;28;20410;-68
2021/01/16 01:58:53;;;;;;;42.58;17.00;;;-7.90;90.00;;;;;;5106311;28;20511;-68
2021/01/16 02:01:19;;;;;;;39.30;15.13;;;-8.00;88.60;;;;;;5106521;28;20023;-68
2021/01/16 02:03:48;;;;;;;38.17;14.70;;;-8.10;88.90;;;;;;5106477;28;20039;-67
2021/01/16 02:06:15;;;;;;;45.90;18.08;;;-8.10;88.90;;;;;;5106165;28;20024;-67
2021/01/16 02:08:41;;;;;;;47.40;17.50;;;-8.20;88.90;;;;;;5106356;28;20107;-68
2021/01/16 02:11:06;;;;;;;32.80;14.68;;;-8.30;88.30;;;;;;5106697;28;20150;-68
2021/01/16 02:13:32;;;;;;;34.67;14.50;;;-8.30;88.20;;;;;;5106413;28;20080;-68
2021/01/16 02:16:13;;;;;;;32.17;14.25;;;-8.30;89.80;;;;;;5106231;28;20030;-68
2021/01/16 02:18:45;;;;;;;40.00;15.75;;;-8.30;90.10;;;;;;5106237;28;20065;-68
2021/01/16 02:21:17;;;;;;;38.55;15.85;;;-8.20;90.00;;;;;;5106267;28;20103;-68
2021/01/16 02:24:00;;;;;;;41.97;15.13;;;-8.20;90.00;;;;;;5106547;28;20028;-68
2021/01/16 02:27:03;;;;;;;28.42;12.48;;;-8.20;90.20;;;;;;5087649;28;20526;-67
2021/01/16 02:29:30;;;;;;;38.67;14.20;;;-8.20;90.20;;;;;;5106604;28;20028;-68
2021/01/16 02:32:09;;;;;;;27.58;12.07;;;-8.00;90.50;;;;;;5106638;28;20107;-67
2021/01/16 02:34:41;;;;;;;28.17;11.07;;;-7.90;90.40;;;;;;5105767;28;20547;-70
2021/01/16 02:37:45;;;;;;;24.88;10.25;;;-7.80;90.30;;;;;;5106686;28;20110;-67
2021/01/16 02:40:18;;;;;;;29.35;12.75;;;-7.70;90.10;;;;;;5074091;28;20130;-68
2021/01/16 02:43:10;;;;;;;34.30;12.65;;;-7.50;89.80;;;;;;5105827;28;20031;-67
2021/01/16 02:45:49;;;;;;;48.63;17.38;;;-7.40;89.10;;;;;;5109250;28;20028;-67
2021/01/16 02:48:23;;;;;;;36.90;16.00;;;-7.30;89.00;;;;;;5109980;28;20024;-66
2021/01/16 02:50:51;;;;;;;32.95;15.05;;;-7.30;88.40;;;;;;5109547;28;20537;-67
2021/01/16 02:53:24;;;;;;;36.97;16.35;;;-7.30;87.70;;;;;;5109602;28;20395;-67
2021/01/16 02:55:51;;;;;;;35.17;15.95;;;-7.30;87.30;;;;;;5110325;28;20024;-67
2021/01/16 02:58:17;;;;;;;37.88;16.95;;;-7.40;86.80;;;;;;5091685;28;20400;-67
2021/01/16 03:00:44;;;;;;;49.80;19.80;;;-7.40;86.20;;;;;;5110150;28;20032;-68
2021/01/16 03:03:10;;;;;;;58.78;25.85;;;-7.50;86.30;;;;;;5110004;28;20038;-68
2021/01/16 03:05:35;;;;;;;36.88;17.55;;;-7.50;86.60;;;;;;5109520;28;20023;-67
2021/01/16 03:08:02;;;;;;;49.13;21.65;;;-7.40;87.50;;;;;;5110252;28;20058;-67
2021/01/16 03:10:29;;;;;;;48.83;21.73;;;-7.40;87.10;;;;;;5109786;28;20038;-67
2021/01/16 03:12:55;;;;;;;48.65;21.33;;;-7.40;86.90;;;;;;5110038;28;20486;-67
2021/01/16 03:15:21;;;;;;;41.22;19.52;;;-7.40;86.30;;;;;;5109896;28;20484;-67
2021/01/16 03:17:58;;;;;;;42.35;16.58;;;-7.40;86.50;;;;;;5109479;28;20024;-68
2021/01/16 03:20:28;;;;;;;;;;;-7.40;87.00;;;;;;5109601;28;20107;-67
2021/01/16 03:23:11;;;;;;;42.97;18.92;;;-7.40;87.00;;;;;;5109802;28;19943;-67
2021/01/16 03:25:37;;;;;;;44.22;17.10;;;-7.40;86.90;;;;;;5109170;28;20043;-66
2021/01/16 03:28:02;;;;;;;39.33;15.68;;;-7.40;86.80;;;;;;5109482;28;20076;-66
2021/01/16 03:30:28;;;;;;;31.85;14.93;;;-7.40;86.80;;;;;;5109167;28;20032;-66
2021/01/16 03:32:54;;;;;;;31.10;13.77;;;-7.30;87.10;;;;;;5109357;28;20038;-66
2021/01/16 03:35:21;;;;;;;27.83;12.43;;;-7.30;87.20;;;;;;5109179;28;20039;-66
2021/01/16 03:37:48;;;;;;;25.02;11.55;;;-7.30;87.30;;;;;;5108757;28;20076;-66
2021/01/16 03:40:15;;;;;;;25.60;10.57;;;-7.20;87.40;;;;;;5109015;28;20449;-66
2021/01/16 03:42:42;;;;;;;31.33;12.02;;;-7.20;87.50;;;;;;5109032;28;20054;-67
2021/01/16 03:45:10;;;;;;;24.58;9.82;;;-7.10;87.60;;;;;;5108878;28;20037;-67
2021/01/16 03:47:36;;;;;;;25.02;8.93;;;-7.00;87.30;;;;;;5109020;28;20024;-66
2021/01/16 03:50:02;;;;;;;20.50;7.82;;;-6.70;86.50;;;;;;5108369;28;20042;-66
2021/01/16 03:52:31;;;;;;;23.05;9.68;;;-6.50;85.40;;;;;;5090881;28;20503;-66
2021/01/16 03:54:57;;;;;;;19.30;7.93;;;-6.20;84.00;;;;;;5108848;28;20024;-69
2021/01/16 03:57:23;;;;;;;20.08;7.97;;;-6.00;82.90;;;;;;5109024;28;20020;-67
2021/01/16 03:59:49;;;;;;;18.23;7.57;;;-5.80;81.90;;;;;;5108419;28;20071;-68
2021/01/16 04:02:16;;;;;;;23.27;7.63;;;-5.70;80.70;;;;;;5108913;28;20519;-67
2021/01/16 04:04:41;;;;;;;34.47;12.95;;;-5.50;79.80;;;;;;5107948;28;20449;-67
2021/01/16 04:07:07;;;;;;;40.05;16.50;;;-5.40;79.70;;;;;;5108432;28;20032;-67
2021/01/16 04:09:33;;;;;;;158.20;70.10;;;-5.40;79.60;;;;;;5108661;28;20031;-67
2021/01/16 04:11:59;;;;;;;138.73;60.22;;;-5.50;79.50;;;;;;5108845;28;20069;-67
2021/01/16 04:14:24;;;;;;;116.68;46.60;;;-5.60;79.10;;;;;;5108653;28;20034;-67
2021/01/16 04:16:50;;;;;;;89.97;39.65;;;-5.70;79.40;;;;;;5108316;28;20805;-68
2021/01/16 04:19:16;;;;;;;40.72;17.00;;;-5.80;79.20;;;;;;5089544;28;20118;-67
2021/01/16 04:21:41;;;;;;;43.33;17.00;;;-6.00;79.10;;;;;;5090061;28;20353;-67
2021/01/16 04:24:07;;;;;;;45.45;18.40;;;-6.10;79.30;;;;;;5108021;28;20458;-67
2021/01/16 04:26:33;;;;;;;35.60;14.32;;;-6.20;80.20;;;;;;5108275;28;20055;-69
2021/01/16 04:28:58;;;;;;;27.50;12.85;;;-6.40;80.20;;;;;;5108349;28;20035;-67
2021/01/16 04:31:24;;;;;;;27.52;9.85;;;-6.50;80.40;;;;;;5108363;28;20023;-66
2021/01/16 04:33:50;;;;;;;22.80;9.48;;;-6.60;81.00;;;;;;5107730;28;20595;-66
2021/01/16 04:36:15;;;;;;;18.92;8.52;;;-6.70;81.20;;;;;;5089898;28;20072;-67
2021/01/16 04:38:41;;;;;;;18.90;8.30;;;-6.70;81.80;;;;;;5107743;28;20046;-66
2021/01/16 04:41:08;;;;;;;31.23;12.18;;;-6.80;81.90;;;;;;5108081;28;20019;-67
2021/01/16 04:43:34;;;;;;;45.92;20.17;;;-6.80;82.00;;;;;;5108211;28;20031;-66
2021/01/16 04:46:05;;;;;;;109.22;43.90;;;-6.80;81.60;;;;;;5108155;28;20027;-66
2021/01/16 04:48:33;;;;;;;137.73;49.65;;;-6.80;81.50;;;;;;5107188;28;20400;-67
2021/01/16 04:51:00;;;;;;;37.28;14.52;;;-6.90;81.50;;;;;;5107639;28;20564;-67
2021/01/16 04:53:46;;;;;;;23.77;9.65;;;-6.80;81.40;;;;;;5107725;28;20023;-67
2021/01/16 04:56:12;;;;;;;24.52;8.65;;;-6.60;81.40;;;;;;5089604;28;20062;-67
2021/01/16 04:58:40;;;;;;;15.88;7.75;;;-6.30;81.10;;;;;;5107192;28;20497;-66
2021/01/16 05:01:08;;;;;;;18.98;7.30;;;-6.00;80.10;;;;;;5107809;28;20034;-66
2021/01/16 05:03:42;;;;;;;12.73;5.95;;;-5.80;79.40;;;;;;5106860;28;20032;-66
2021/01/16 05:06:13;;;;;;;15.48;5.95;;;-5.70;78.70;;;;;;5107651;28;20020;-67
2021/01/16 05:08:42;;;;;;;15.13;6.82;;;-5.50;77.70;;;;;;5106580;28;20031;-67
2021/01/16 05:11:32;;;;;;;18.98;6.90;;;-5.30;77.10;;;;;;5107531;28;20028;-67
2021/01/16 05:14:11;;;;;;;18.25;7.13;;;-5.20;76.30;;;;;;5089199;28;20404;-68
2021/01/16 05:16:57;;;;;;;22.55;8.63;;;-5.20;76.10;;;;;;5089051;28;20505;-66
2021/01/16 05:19:30;;;;;;;22.92;7.95;;;-5.10;75.50;;;;;;5106991;28;20050;-66
2021/01/16 05:21:56;;;;;;;25.67;9.75;;;-5.00;75.10;;;;;;5107640;28;20028;-67
2021/01/16 05:24:22;;;;;;;24.95;10.57;;;-5.00;74.40;;;;;;5107036;28;20031;-68
2021/01/16 05:26:54;;;;;;;25.45;11.95;;;-4.90;74.30;;;;;;5107418;28;20291;-67
2021/01/16 05:29:23;;;;;;;22.23;10.07;;;-4.90;73.00;;;;;;5107170;28;20031;-64
2021/01/16 05:31:54;;;;;;;22.45;9.80;;;-5.00;72.80;;;;;;5107415;28;20036;-67
2021/01/16 05:34:22;;;;;;;32.05;11.75;;;-4.90;71.80;;;;;;5106914;28;20106;-67
2021/01/16 05:36:49;;;;;;;19.70;9.52;;;-5.10;72.10;;;;;;5088784;28;20399;-67
2021/01/16 05:39:16;;;;;;;14.43;6.00;;;-5.10;72.30;;;;;;5107000;28;20035;-66
2021/01/16 05:41:43;;;;;;;16.85;6.00;;;-5.20;72.60;;;;;;5088644;28;20023;-67
2021/01/16 05:44:10;;;;;;;19.05;6.97;;;-5.30;72.40;;;;;;5088841;28;20087;-68
2021/01/16 05:46:36;;;;;;;19.42;6.22;;;-5.40;72.90;;;;;;5106878;28;20048;-67
2021/01/16 05:49:03;;;;;;;17.92;7.97;;;-5.40;73.10;;;;;;5106056;28;20027;-66
2021/01/16 05:51:29;;;;;;;27.88;11.40;;;-5.50;73.70;;;;;;5106475;28;20020;-67
2021/01/16 05:53:56;;;;;;;27.25;9.43;;;-5.50;73.60;;;;;;5106649;28;20038;-67
2021/01/16 05:56:22;;;;;;;19.02;7.07;;;-5.60;73.50;;;;;;5106492;28;20082;-68
2021/01/16 05:58:50;;;;;;;24.90;8.73;;;-5.60;73.90;;;;;;5106739;28;20067;-67
2021/01/16 06:01:24;;;;;;;18.95;7.65;;;-5.70;74.10;;;;;;5106354;28;20123;-66
2021/01/16 06:03:58;;;;;;;15.65;6.32;;;-5.70;74.50;;;;;;5088513;28;20076;-67
2021/01/16 06:06:23;;;;;;;15.15;6.05;;;-5.80;74.80;;;;;;5106432;28;20028;-66
2021/01/16 06:08:49;;;;;;;23.98;8.45;;;-5.80;75.10;;;;;;5106497;28;20020;-65
2021/01/16 06:11:15;;;;;;;37.22;10.45;;;-5.90;75.20;;;;;;5106127;28;20514;-67
2021/01/16 06:13:42;;;;;;;27.60;11.30;;;-5.80;75.10;;;;;;5106633;28;20020;-67
2021/01/16 06:16:14;;;;;;;27.67;8.77;;;-5.80;74.70;;;;;;5087842;28;20638;-67
2021/01/16 06:18:52;;;;;;;40.20;14.30;;;-5.90;74.40;;;;;;5106390;28;20043;-66
2021/01/16 06:21:28;;;;;;;39.92;14.27;;;-6.10;74.70;;;;;;5110529;28;20086;-67
2021/01/16 06:23:58;;;;;;;54.47;23.45;;;-6.20;75.60;;;;;;5110936;28;20075;-66
2021/01/16 06:26:26;;;;;;;31.60;14.68;;;-6.30;76.50;;;;;;5110255;28;20067;-67
2021/01/16 06:29:03;;;;;;;23.70;11.13;;;-6.40;76.70;;;;;;5110643;28;20027;-67
2021/01/16 06:31:33;;;;;;;18.98;9.07;;;-6.30;76.00;;;;;;5109863;28;20361;-66
2021/01/16 06:34:05;;;;;;;19.25;7.28;;;-6.20;75.50;;;;;;5110320;28;20036;-66
2021/01/16 06:36:36;;;;;;;17.40;8.15;;;-6.10;74.80;;;;;;5092343;28;20015;-66
2021/01/16 06:39:09;;;;;;;23.67;9.98;;;-5.90;74.20;;;;;;5091971;28;20071;-66
2021/01/16 06:41:37;;;;;;;29.55;11.25;;;-5.60;74.10;;;;;;5110614;28;20024;-66
2021/01/16 06:44:13;;;;;;;28.58;12.27;;;-5.40;73.40;;;;;;5110605;28;20108;-66
2021/01/16 06:46:46;;;;;;;36.80;13.45;;;-5.20;73.20;;;;;;5109739;28;20024;-67
2021/01/16 06:49:22;;;;;;;31.90;11.50;;;-5.10;73.00;;;;;;5110490;28;20086;-67
2021/01/16 06:51:58;;;;;;;39.72;14.02;;;-5.00;72.70;;;;;;5091552;28;20416;-68
2021/01/16 06:54:24;;;;;;;36.28;15.85;;;-5.00;72.50;;;;;;5110365;28;20829;-67
2021/01/16 06:57:03;;;;;;;28.00;10.85;;;-5.00;72.20;;;;;;5091462;28;20024;-68
2021/01/16 06:59:29;;;;;;;20.58;8.10;;;-4.80;71.80;;;;;;5109924;28;20032;-67
2021/01/16 07:01:57;;;;;;;17.98;8.50;;;-4.60;71.30;;;;;;5109816;28;20023;-68
2021/01/16 07:04:23;;;;;;;26.85;10.32;;;-4.50;70.90;;;;;;5110139;28;20304;-68
2021/01/16 07:06:50;;;;;;;21.27;8.52;;;-4.50;70.80;;;;;;5109961;28;20378;-68
2021/01/16 07:09:21;;;;;;;18.33;8.05;;;-4.50;70.80;;;;;;5110067;28;20099;-68
2021/01/16 07:11:48;;;;;;;19.15;7.95;;;-4.40;70.40;;;;;;5109873;28;20173;-67
2021/01/16 07:14:15;;;;;;;17.45;7.82;;;-4.20;70.00;;;;;;5109732;28;20024;-68
2021/01/16 07:16:42;;;;;;;22.48;9.90;;;-3.90;69.20;;;;;;5108944;28;20020;-68
2021/01/16 07:19:09;;;;;;;27.52;10.50;;;-3.40;67.40;;;;;;5109381;28;20032;-67
2021/01/16 07:21:41;;;;;;;24.23;11.07;;;-3.20;66.10;;;;;;5109419;28;20019;-68
2021/01/16 07:24:11;;;;;;;47.60;20.20;;;-2.90;66.10;;;;;;5109070;28;20084;-69
2021/01/16 07:26:40;;;;;;;96.47;39.55;;;-2.70;65.90;;;;;;5109214;28;20043;-68
2021/01/16 07:29:08;;;;;;;137.00;60.83;;;-2.40;64.60;;;;;;5109528;28;20024;-68
2021/01/16 07:31:44;;;;;;;223.23;95.53;;;-2.30;63.60;;;;;;5108138;28;20118;-67
2021/01/16 07:34:11;;;;;;;318.13;126.03;;;-2.30;62.20;;;;;;5091096;28;20484;-68
2021/01/16 07:36:37;;;;;;;225.55;91.72;;;-2.30;62.10;;;;;;5108753;28;20031;-68
2021/01/16 07:39:04;;;;;;;;;;;-2.40;61.40;;;;;;5109369;28;20114;-65
2021/01/16 07:41:32;;;;;;;96.18;41.80;;;-2.40;62.10;;;;;;5109439;28;19907;-66
2021/01/16 07:44:05;;;;;;;62.70;31.33;;;-2.40;62.10;;;;;;5090400;28;20031;-66
2021/01/16 07:46:31;;;;;;;66.53;28.73;;;-2.40;62.90;;;;;;5108413;28;20055;-66
2021/01/16 07:48:59;;;;;;;44.47;19.92;;;-2.40;62.00;;;;;;5108414;28;20107;-66
2021/01/16 07:51:33;;;;;;;36.03;15.77;;;-2.40;62.00;;;;;;5109208;28;20480;-66
2021/01/16 07:54:06;;;;;;;47.55;20.67;;;-2.20;61.60;;;;;;5108792;28;20069;-67
2021/01/16 07:56:59;;;;;;;54.28;27.13;;;-2.30;62.30;;;;;;5090761;28;20486;-66
2021/01/16 07:59:32;;;;;;;50.22;25.88;;;-2.10;61.50;;;;;;5108523;28;20065;-66
2021/01/16 08:01:58;;;;;;;49.60;22.30;;;-2.20;61.40;;;;;;5090194;28;20016;-66
2021/01/16 08:04:37;;;;;;;;;;;-2.20;62.10;;;;;;5108865;28;20032;-66
2021/01/16 08:07:09;;;;;;;38.45;19.08;;;-1.90;63.00;;;;;;5108502;28;19911;-67
2021/01/16 08:09:51;;;;;;;29.25;14.05;;;-1.50;63.40;;;;;;5108587;28;20098;-67
2021/01/16 08:12:27;;;;;;;22.38;10.07;;;-1.00;61.10;;;;;;5108988;28;20043;-67
2021/01/16 08:14:54;;;;;;;24.92;10.00;;;-0.60;60.50;;;;;;5108677;28;20032;-66
2021/01/16 08:17:27;;;;;;;22.75;9.98;;;-0.40;58.70;;;;;;5108179;28;20039;-66
2021/01/16 08:20:08;;;;;;;18.42;9.35;;;-0.10;58.00;;;;;;5109056;28;20164;-67
2021/01/16 08:22:42;;;;;;;22.65;11.02;;;0.30;57.10;;;;;;5108285;28;20034;-67
2021/01/16 08:25:24;;;;;;;21.20;10.30;;;0.50;54.80;;;;;;5107924;28;20023;-67
2021/01/16 08:28:00;;;;;;;33.40;18.92;;;0.50;54.00;;;;;;5107933;28;20691;-67
2021/01/16 08:30:34;;;;;;;107.93;64.05;;;0.70;53.30;;;;;;5108469;28;20061;-66
2021/01/16 08:33:04;;;;;;;54.35;30.33;;;1.10;54.80;;;;;;5089677;28;20035;-67
2021/01/16 08:35:37;;;;;;;42.08;23.60;;;1.50;52.10;;;;;;5108096;28;20086;-67
2021/01/16 08:38:17;;;;;;;40.38;22.52;;;1.70;51.00;;;;;;5108021;28;20032;-67
2021/01/16 08:40:50;;;;;;;24.52;12.88;;;2.00;49.70;;;;;;5108278;28;20096;-67
2021/01/16 08:43:43;;;;;;;24.05;13.30;;;1.90;49.00;;;;;;5107269;28;20027;-67
2021/01/16 08:46:15;;;;;;;27.08;15.35;;;1.60;49.30;;;;;;5107743;28;20107;-65
2021/01/16 08:49:01;;;;;;;32.70;17.30;;;1.20;50.90;;;;;;5107968;28;20015;-67
2021/01/16 08:51:28;;;;;;;43.28;22.60;;;1.20;52.60;;;;;;5107837;28;20730;-66
2021/01/16 08:54:13;;;;;;;52.85;28.52;;;1.70;51.70;;;;;;5089471;28;20075;-67
2021/01/16 08:56:40;;;;;;;30.55;17.25;;;2.20;51.10;;;;;;5089101;28;20499;-66
2021/01/16 08:59:33;;;;;;;33.67;19.20;;;2.70;49.80;;;;;;5107845;28;20031;-66
2021/01/16 09:02:13;;;;;;;40.67;21.92;;;2.90;47.50;;;;;;5104573;28;20036;-67
2021/01/16 09:04:44;;;;;;;74.38;41.88;;;2.30;47.50;;;;;;5107554;28;20031;-67
2021/01/16 09:07:27;;;;;;;34.25;17.70;;;1.90;49.20;;;;;;5107665;28;20077;-67
2021/01/16 09:10:06;;;;;;;35.42;18.65;;;1.80;49.60;;;;;;5107350;28;20035;-67
2021/01/16 09:12:37;;;;;;;82.15;43.17;;;1.50;49.60;;;;;;5107577;28;20077;-66
2021/01/16 09:15:22;;;;;;;56.67;28.85;;;1.30;51.40;;;;;;5089252;28;20055;-66
2021/01/16 09:18:17;;;;;;;43.28;22.75;;;1.10;52.20;;;;;;5107370;28;20137;-67
2021/01/16 09:20:55;;;;;;;50.35;25.75;;;0.90;52.50;;;;;;5093512;28;20496;-67
2021/01/16 09:23:24;;;;;;;74.07;42.58;;;0.90;51.30;;;;;;5088816;28;20030;-66
2021/01/16 09:26:05;;;;;;;45.25;26.80;;;0.80;51.70;;;;;;5106718;28;20167;-66
2021/01/16 09:28:47;;;;;;;29.48;16.55;;;0.80;53.30;;;;;;5107331;28;20038;-66
2021/01/16 09:31:25;;;;;;;38.13;20.70;;;0.80;54.10;;;;;;5107022;28;20049;-66
2021/01/16 09:33:58;;;;;;;25.88;14.20;;;0.90;52.50;;;;;;5106869;28;20056;-66
2021/01/16 09:37:00;;;;;;;21.27;10.43;;;1.00;53.20;;;;;;5088889;28;20473;-66
2021/01/16 09:39:33;;;;;;;19.35;7.65;;;1.00;52.20;;;;;;5106605;28;20118;-65
2021/01/16 09:42:02;;;;;;;13.45;7.40;;;1.00;51.50;;;;;;5106982;28;20058;-65
2021/01/16 09:44:43;;;;;;;18.30;7.55;;;1.00;51.80;;;;;;5106967;28;20160;-66
2021/01/16 09:47:37;;;;;;;13.63;6.82;;;1.10;51.70;;;;;;5106477;28;20028;-65
2021/01/16 09:50:03;;;;;;;16.92;7.53;;;0.90;52.40;;;;;;5106894;28;20024;-66
2021/01/16 09:52:29;;;;;;;;;;;0.90;52.90;;;;;;5106913;28;20031;-66
2021/01/16 09:54:55;;;;;;;25.27;11.82;;;0.90;52.90;;;;;;5106691;28;19935;-66
2021/01/16 09:57:40;;;;;;;20.13;10.50;;;0.80;52.80;;;;;;5088317;28;20498;-66
2021/01/16 10:00:13;;;;;;;22.08;11.65;;;0.80;53.40;;;;;;5106447;28;20723;-66
2021/01/16 10:02:41;;;;;;;18.80;9.95;;;0.80;54.20;;;;;;5106399;28;20021;-66
2021/01/16 10:05:09;;;;;;;35.53;20.50;;;0.80;54.50;;;;;;5106458;28;20028;-66
2021/01/16 10:07:38;;;;;;;29.40;15.93;;;0.80;53.90;;;;;;5106473;28;20019;-66
2021/01/16 10:10:12;;;;;;;38.80;20.58;;;0.60;53.80;;;;;;5088252;28;20039;-66
2021/01/16 10:12:41;;;;;;;17.15;9.70;;;0.60;54.30;;;;;;5106168;28;20027;-66
2021/01/16 10:15:08;;;;;;;18.15;8.77;;;0.70;53.40;;;;;;5106482;28;20102;-67
2021/01/16 10:17:35;;;;;;;21.40;10.88;;;0.60;53.40;;;;;;5088072;28;20027;-66
2021/01/16 10:20:06;;;;;;;43.78;23.55;;;0.50;53.70;;;;;;5106629;28;20074;-66
2021/01/16 10:22:33;;;;;;;35.13;19.95;;;0.50;54.00;;;;;;5106676;28;20735;-66
2021/01/16 10:25:00;;;;;;;29.80;15.18;;;0.40;54.80;;;;;;5106290;28;20034;-65
2021/01/16 10:27:50;;;;;;;24.10;12.43;;;0.40;55.60;;;;;;5105934;28;20526;-66
2021/01/16 10:30:30;;;;;;;23.73;11.90;;;0.40;55.80;;;;;;5096122;28;20119;-66
2021/01/16 10:32:57;;;;;;;28.25;14.25;;;0.40;55.30;;;;;;5105665;28;20088;-66
2021/01/16 10:35:25;;;;;;;29.10;16.23;;;0.30;55.50;;;;;;5106563;28;20398;-65
2021/01/16 10:37:53;;;;;;;22.63;12.35;;;0.40;56.10;;;;;;5106294;28;20019;-66
2021/01/16 10:40:20;;;;;;;26.55;13.45;;;0.40;55.80;;;;;;5106320;28;20409;-65
2021/01/16 10:42:58;;;;;;;93.13;32.60;;;0.40;55.80;;;;;;5106409;28;20054;-67
2021/01/16 10:45:52;;;;;;;42.60;17.98;;;0.40;56.30;;;;;;5105543;28;20067;-66
2021/01/16 10:48:24;;;;;;;21.95;10.77;;;0.30;56.50;;;;;;5105395;28;20034;-65
2021/01/16 10:50:55;;;;;;;25.02;10.52;;;0.30;56.90;;;;;;5105652;28;20023;-66
2021/01/16 10:53:34;;;;;;;20.42;10.63;;;0.40;56.50;;;;;;5087494;28;20396;-66
2021/01/16 10:56:14;;;;;;;22.33;11.43;;;0.30;56.70;;;;;;5106148;28;20026;-66
2021/01/16 10:58:40;;;;;;;21.65;11.77;;;0.20;56.70;;;;;;5105636;28;20085;-66
2021/01/16 11:01:09;;;;;;;25.13;12.65;;;0.00;57.40;;;;;;5105972;28;20054;-65
2021/01/16 11:03:35;;;;;;;27.35;13.15;;;-0.10;58.00;;;;;;5106013;28;20030;-67
2021/01/16 11:06:05;;;;;;;;;;;-0.10;58.70;;;;;;5108620;28;20094;-65
2021/01/16 11:08:32;;;;;;;45.22;21.35;;;-0.20;59.60;;;;;;5110067;28;19919;-66
2021/01/16 11:10:59;;;;;;;35.28;17.50;;;-0.20;60.00;;;;;;5110338;28;20027;-66
2021/01/16 11:13:25;;;;;;;33.67;16.20;;;-0.30;60.50;;;;;;5109824;28;20024;-66
2021/01/16 11:15:52;;;;;;;;;;;-0.30;60.70;;;;;;5091700;28;20441;-66
2021/01/16 11:18:32;;;;;;;40.30;20.83;;;-0.20;61.80;;;;;;5109992;28;19912;-66
2021/01/16 11:21:06;;;;;;;44.33;22.42;;;-0.20;62.10;;;;;;5109885;28;20541;-66
2021/01/16 11:23:47;;;;;;;43.60;22.30;;;-0.10;62.10;;;;;;5109694;28;20032;-66
2021/01/16 11:26:14;;;;;;;35.80;19.30;;;0.00;62.60;;;;;;5109561;28;20075;-64
2021/01/16 11:28:56;;;;;;;41.20;20.45;;;0.00;62.60;;;;;;5109370;28;20035;-66
2021/01/16 11:31:33;;;;;;;34.22;16.55;;;0.10;62.70;;;;;;5109727;28;20293;-66
2021/01/16 11:34:08;;;;;;;40.58;19.65;;;0.10;62.80;;;;;;5091105;28;20411;-66
2021/01/16 11:36:56;;;;;;;42.75;20.15;;;0.20;63.20;;;;;;5109511;28;20046;-66
2021/01/16 11:39:41;;;;;;;44.97;23.20;;;0.10;63.90;;;;;;5109521;28;20182;-65
2021/01/16 11:42:08;;;;;;;41.70;20.65;;;0.20;63.20;;;;;;5109306;28;20238;-66
2021/01/16 11:45:01;;;;;;;51.25;28.50;;;0.10;63.50;;;;;;5108939;28;20103;-65
2021/01/16 11:47:29;;;;;;;48.30;27.38;;;0.10;63.90;;;;;;5109188;28;20031;-66
2021/01/16 11:49:55;;;;;;;98.03;55.55;;;0.00;64.40;;;;;;5091124;28;20118;-66
2021/01/16 11:52:20;;;;;;;65.15;33.58;;;0.00;64.50;;;;;;5109357;28;20035;-66
2021/01/16 11:54:48;;;;;;;;;;;0.00;65.00;;;;;;5109253;28;20031;-66
2021/01/16 11:57:18;;;;;;;91.95;48.65;;;-0.10;65.70;;;;;;5108886;28;19908;-66
2021/01/16 11:59:45;;;;;;;66.93;35.20;;;-0.10;65.70;;;;;;5108153;28;20524;-66
2021/01/16 12:02:15;;;;;;;63.03;32.45;;;-0.10;66.10;;;;;;5108741;28;20016;-66
2021/01/16 12:04:45;;;;;;;43.97;23.35;;;0.00;66.30;;;;;;5108861;28;20135;-65
2021/01/16 12:07:18;;;;;;;30.50;15.55;;;0.00;66.10;;;;;;5108440;28;20046;-66
2021/01/16 12:09:46;;;;;;;37.03;17.88;;;0.20;66.00;;;;;;5108654;28;20649;-66
2021/01/16 12:12:12;;;;;;;41.83;22.60;;;0.20;66.10;;;;;;5108420;28;20027;-66
2021/01/16 12:14:40;;;;;;;30.45;17.13;;;0.20;66.80;;;;;;5108014;28;20077;-66
2021/01/16 12:17:11;;;;;;;29.98;15.90;;;0.30;66.40;;;;;;5088753;28;20090;-65
2021/01/16 12:19:38;;;;;;;30.27;15.68;;;0.40;66.80;;;;;;5090188;28;20051;-66
2021/01/16 12:22:09;;;;;;;31.67;16.20;;;0.40;66.60;;;;;;5108412;28;20508;-66
2021/01/16 12:24:35;;;;;;;31.20;16.17;;;0.30;66.90;;;;;;5108656;28;20027;-66
2021/01/16 12:27:03;;;;;;;32.88;17.25;;;0.30;67.50;;;;;;5108329;28;20043;-66
2021/01/16 12:29:52;;;;;;;30.08;15.13;;;0.30;68.30;;;;;;5107865;28;20036;-66
2021/01/16 12:32:18;;;;;;;33.47;16.95;;;0.40;68.40;;;;;;5107960;28;20599;-66
2021/01/16 12:34:49;;;;;;;;;;;0.60;68.10;;;;;;5108868;28;20102;-65
2021/01/16 12:37:33;;;;;;;29.88;15.50;;;0.90;66.90;;;;;;5108119;28;19907;-66
2021/01/16 12:40:00;;;;;;;30.38;15.93;;;1.00;66.70;;;;;;5108136;28;20031;-66
2021/01/16 12:42:30;;;;;;;30.05;16.27;;;1.10;66.50;;;;;;5107901;28;20114;-66
2021/01/16 12:45:08;;;;;;;31.50;16.55;;;1.20;66.70;;;;;;5107438;28;20317;-66
2021/01/16 12:47:35;;;;;;;26.67;14.82;;;1.30;65.60;;;;;;5089587;28;20118;-66
2021/01/16 12:50:03;;;;;;;33.65;16.00;;;1.30;66.50;;;;;;5108033;28;20098;-66
2021/01/16 12:52:30;;;;;;;29.58;14.70;;;1.30;66.20;;;;;;5107694;28;20541;-67